createdAt,value
2022-12-03T00:01:08.955Z,63.17
2022-12-03T00:04:30.936Z,62.97
2022-12-03T00:07:52.682Z,62.47
2022-12-03T00:11:15.751Z,63.17
2022-12-03T00:14:42.844Z,62.43
2022-12-03T00:18:06.119Z,62.45
2022-12-03T00:21:27.918Z,63.22
2022-12-03T00:24:49.857Z,63.08
2022-12-03T00:28:13.133Z,63.21
2022-12-03T00:31:34.731Z,63.51
2022-12-03T00:34:56.552Z,63.45
2022-12-03T00:38:18.490Z,63.87
2022-12-03T00:41:40.046Z,63.27
2022-12-03T00:45:03.359Z,63.80
2022-12-03T00:48:25.126Z,63.88
2022-12-03T00:51:46.962Z,63.79
2022-12-03T00:55:09.718Z,63.45
2022-12-03T00:58:31.482Z,63.22
2022-12-03T01:01:54.940Z,64.08
2022-12-03T01:05:16.897Z,63.61
2022-12-03T01:08:38.561Z,63.71
2022-12-03T01:12:00.630Z,64.11
2022-12-03T01:15:22.116Z,63.26
2022-12-03T01:18:46.288Z,63.38
2022-12-03T01:22:09.149Z,63.28
2022-12-03T01:25:31.110Z,63.35
2022-12-03T01:28:52.946Z,63.72
2022-12-03T01:32:19.548Z,63.34
2022-12-03T01:35:43.154Z,63.65
2022-12-03T01:39:05.307Z,63.74
2022-12-03T01:42:30.261Z,63.46
2022-12-03T01:45:52.154Z,63.26
2022-12-03T01:49:16.878Z,63.66
2022-12-03T01:52:41.287Z,63.52
2022-12-03T01:56:03.350Z,63.42
2022-12-03T01:59:33.367Z,63.58
2022-12-03T02:02:57.091Z,62.89
2022-12-03T02:06:21.277Z,62.80
2022-12-03T02:09:44.394Z,62.66
2022-12-03T02:13:09.039Z,63.83
2022-12-03T02:16:31.546Z,63.66
2022-12-03T02:19:53.563Z,63.93
2022-12-03T02:23:24.032Z,63.15
2022-12-03T02:26:47.167Z,63.68
2022-12-03T02:30:10.968Z,63.36
2022-12-03T02:33:33.007Z,62.72
2022-12-03T02:36:55.067Z,63.08
2022-12-03T02:40:20.822Z,63.74
2022-12-03T02:43:43.898Z,63.03
2022-12-03T02:47:05.850Z,62.64
2022-12-03T02:50:30.441Z,63.12
2022-12-03T02:53:55.251Z,62.52
2022-12-03T02:57:17.239Z,63.38
2022-12-03T03:00:40.911Z,63.61
2022-12-03T03:04:03.323Z,63.44
2022-12-03T03:07:25.064Z,63.45
2022-12-03T03:10:48.754Z,62.89
2022-12-03T03:14:10.489Z,63.63
2022-12-03T03:17:33.596Z,63.23
2022-12-03T03:20:55.195Z,63.47
2022-12-03T03:24:17.059Z,63.17
2022-12-03T03:27:39.983Z,63.20
2022-12-03T03:31:04.704Z,63.59
2022-12-03T03:34:28.786Z,63.57
2022-12-03T03:37:50.518Z,64.22
2022-12-03T03:41:13.762Z,63.25
2022-12-03T03:44:35.771Z,62.85
2022-12-03T03:47:59.168Z,62.69
2022-12-03T03:51:23.074Z,63.01
2022-12-03T03:54:44.474Z,63.27
2022-12-03T03:58:06.540Z,63.20
2022-12-03T04:01:28.973Z,63.44
2022-12-03T04:04:51.394Z,62.88
2022-12-03T04:08:15.056Z,63.57
2022-12-03T04:11:53.864Z,63.95
2022-12-03T04:15:15.632Z,63.25
2022-12-03T04:18:46.116Z,63.37
2022-12-03T04:22:25.271Z,63.47
2022-12-03T04:26:05.964Z,63.75
2022-12-03T04:29:27.610Z,63.04
2022-12-03T04:33:06.903Z,63.66
2022-12-03T04:36:28.978Z,63.59
2022-12-03T04:39:50.710Z,62.75
2022-12-03T04:43:14.174Z,63.46
2022-12-03T04:46:35.935Z,63.54
2022-12-03T04:49:57.770Z,63.67
2022-12-03T04:53:19.822Z,63.30
2022-12-03T04:56:41.475Z,64.40
2022-12-03T05:00:05.187Z,64.55
2022-12-03T05:03:26.727Z,63.68
2022-12-03T05:06:48.514Z,63.95
2022-12-03T05:10:10.990Z,63.71
2022-12-03T05:13:32.571Z,64.04
2022-12-03T05:16:55.330Z,63.94
2022-12-03T05:20:34.773Z,64.19
2022-12-03T05:23:56.685Z,64.82
2022-12-03T05:27:23.352Z,64.74
2022-12-03T05:30:45.578Z,64.84
2022-12-03T05:34:08.517Z,65.09
2022-12-03T05:37:30.143Z,65.22
2022-12-03T05:40:51.983Z,64.54
2022-12-03T05:44:17.383Z,64.68
2022-12-03T05:47:42.080Z,64.81
2022-12-03T05:51:05.487Z,64.76
2022-12-03T05:54:27.176Z,65.14
2022-12-03T05:57:49.182Z,64.69
2022-12-03T06:01:10.781Z,65.11
2022-12-03T06:04:32.576Z,64.65
2022-12-03T06:07:55.784Z,64.74
2022-12-03T06:11:17.575Z,64.87
2022-12-03T06:14:39.484Z,64.06
2022-12-03T06:18:01.474Z,64.44
2022-12-03T06:21:23.406Z,64.08
2022-12-03T06:24:46.188Z,63.80
2022-12-03T06:28:07.744Z,64.92
2022-12-03T06:31:29.833Z,64.17
2022-12-03T06:34:51.946Z,64.88
2022-12-03T06:38:13.629Z,64.19
2022-12-03T06:41:36.893Z,64.50
2022-12-03T06:44:58.351Z,65.13
2022-12-03T06:48:20.158Z,64.75
2022-12-03T06:51:42.058Z,64.43
2022-12-03T06:55:04.015Z,64.50
2022-12-03T06:58:27.235Z,65.01
2022-12-03T07:01:49.349Z,64.96
2022-12-03T07:05:11.411Z,65.38
2022-12-03T07:08:33.405Z,64.79
2022-12-03T07:11:55.328Z,65.06
2022-12-03T07:15:18.719Z,65.74
2022-12-03T07:18:40.514Z,67.19
2022-12-03T07:22:02.394Z,67.34
2022-12-03T07:25:24.297Z,67.81
2022-12-03T07:28:46.697Z,68.34
2022-12-03T07:32:09.991Z,68.45
2022-12-03T07:35:31.607Z,68.71
2022-12-03T07:38:53.426Z,69.09
2022-12-03T07:42:15.077Z,68.88
2022-12-03T07:45:36.994Z,68.86
2022-12-03T07:49:00.133Z,69.21
2022-12-03T07:52:21.631Z,69.49
2022-12-03T07:55:43.562Z,70.21
2022-12-03T07:59:05.503Z,70.52
2022-12-03T08:02:27.635Z,69.55
2022-12-03T08:05:50.953Z,70.50
2022-12-03T08:09:15.982Z,70.62
2022-12-03T08:12:43.353Z,70.78
2022-12-03T08:16:15.946Z,71.51
2022-12-03T08:19:37.986Z,71.10
2022-12-03T08:23:04.851Z,72.49
2022-12-03T08:26:28.861Z,72.31
2022-12-03T08:29:51.065Z,72.33
2022-12-03T08:33:27.056Z,72.97
2022-12-03T08:36:51.919Z,71.95
2022-12-03T08:40:34.540Z,73.06
2022-12-03T08:43:56.522Z,72.29
2022-12-03T08:47:22.297Z,73.22
2022-12-03T08:50:44.283Z,73.30
2022-12-03T08:54:13.771Z,72.75
2022-12-03T08:57:37.370Z,72.71
2022-12-03T09:01:06.916Z,73.96
2022-12-03T09:04:32.147Z,74.18
2022-12-03T09:07:53.839Z,73.06
2022-12-03T09:11:15.542Z,74.45
2022-12-03T09:14:38.388Z,73.32
2022-12-03T09:18:00.207Z,73.73
2022-12-03T09:21:21.858Z,73.41
2022-12-03T09:24:43.936Z,73.79
2022-12-03T09:28:05.937Z,74.31
2022-12-03T09:31:29.056Z,73.78
2022-12-03T09:34:51.170Z,74.05
2022-12-03T09:38:13.053Z,74.11
2022-12-03T09:41:35.640Z,73.59
2022-12-03T09:44:57.546Z,74.06
2022-12-03T09:48:22.472Z,73.91
2022-12-03T09:51:45.516Z,73.24
2022-12-03T09:55:15.156Z,73.48
2022-12-03T09:58:37.295Z,74.02
2022-12-03T10:02:00.290Z,74.08
2022-12-03T10:05:24.579Z,74.77
2022-12-03T10:08:49.239Z,74.34
2022-12-03T10:12:14.383Z,74.56
2022-12-03T10:15:36.019Z,74.65
2022-12-03T10:19:00.697Z,73.46
2022-12-03T10:22:23.811Z,74.17
2022-12-03T10:25:52.580Z,73.10
2022-12-03T10:29:15.400Z,73.38
2022-12-03T10:32:42.531Z,72.90
2022-12-03T10:36:28.856Z,72.11
2022-12-03T10:39:57.652Z,72.16
2022-12-03T10:43:24.239Z,72.54
2022-12-03T10:46:47.106Z,72.69
2022-12-03T10:50:18.057Z,71.78
2022-12-03T10:53:42.275Z,72.16
2022-12-03T10:57:05.503Z,72.22
2022-12-03T11:00:27.217Z,72.19
2022-12-03T11:03:49.701Z,72.13
2022-12-03T11:07:16.253Z,72.56
2022-12-03T11:10:38.020Z,72.66
2022-12-03T11:14:02.650Z,72.29
2022-12-03T11:17:48.922Z,72.80
2022-12-03T11:21:12.420Z,72.32
2022-12-03T11:24:36.047Z,72.16
2022-12-03T11:28:37.611Z,71.83
2022-12-03T11:32:01.492Z,72.25
2022-12-03T11:35:28.888Z,71.44
2022-12-03T11:38:56.673Z,72.01
2022-12-03T11:42:30.491Z,71.40
2022-12-03T11:45:53.210Z,70.95
2022-12-03T11:49:34.449Z,71.68
2022-12-03T11:53:00.210Z,71.21
2022-12-03T11:56:25.610Z,70.98
2022-12-03T11:59:59.143Z,70.91
2022-12-03T12:03:29.262Z,70.98
2022-12-03T12:06:53.528Z,70.78
2022-12-03T12:10:16.128Z,71.24
2022-12-03T12:13:54.439Z,70.68
2022-12-03T12:17:31.841Z,70.82
2022-12-03T12:20:53.758Z,70.73
2022-12-03T12:24:46.840Z,70.35
2022-12-03T12:28:09.399Z,71.26
2022-12-03T12:31:31.485Z,70.82
2022-12-03T12:34:58.291Z,71.62
2022-12-03T12:38:21.817Z,71.75
2022-12-03T12:41:50.038Z,71.56
2022-12-03T12:45:17.579Z,71.31
2022-12-03T12:48:39.770Z,71.09
2022-12-03T12:52:01.653Z,71.35
2022-12-03T12:55:24.359Z,70.59
2022-12-03T12:58:47.762Z,71.83
2022-12-03T13:02:38.099Z,71.33
2022-12-03T13:06:00.121Z,71.79
2022-12-03T13:09:24.688Z,71.54
2022-12-03T13:12:46.434Z,71.73
2022-12-03T13:16:14.301Z,71.49
2022-12-03T13:19:46.237Z,71.41
2022-12-03T13:23:27.242Z,71.48
2022-12-03T13:26:48.862Z,72.34
2022-12-03T13:30:16.719Z,71.80
2022-12-03T13:33:40.251Z,72.95
2022-12-03T13:37:03.231Z,73.04
2022-12-03T13:40:27.777Z,73.12
2022-12-03T13:43:49.526Z,72.83
2022-12-03T13:47:15.583Z,73.95
2022-12-03T13:50:39.928Z,73.29
2022-12-03T13:54:01.840Z,73.89
2022-12-03T13:57:23.741Z,74.73
2022-12-03T14:00:45.542Z,74.77
2022-12-03T14:04:07.442Z,75.34
2022-12-03T14:07:30.417Z,74.85
2022-12-03T14:10:54.282Z,75.64
2022-12-03T14:14:20.122Z,75.83
2022-12-03T14:17:41.974Z,75.59
2022-12-03T14:21:04.036Z,75.83
2022-12-03T14:24:27.377Z,76.12
2022-12-03T14:27:48.976Z,75.37
2022-12-03T14:31:10.975Z,74.93
2022-12-03T14:34:32.360Z,74.98
2022-12-03T14:37:54.079Z,75.85
2022-12-03T14:41:34.680Z,75.22
2022-12-03T14:44:56.682Z,76.44
2022-12-03T14:48:18.476Z,75.59
2022-12-03T14:51:40.163Z,75.44
2022-12-03T14:55:01.962Z,75.56
2022-12-03T14:58:26.448Z,75.34
2022-12-03T15:01:48.281Z,75.46
2022-12-03T15:05:10.303Z,76.01
2022-12-03T15:08:31.926Z,76.42
2022-12-03T15:11:53.495Z,76.35
2022-12-03T15:15:18.235Z,76.26
2022-12-03T15:18:39.727Z,76.45
2022-12-03T15:22:01.538Z,75.79
2022-12-03T15:25:25.472Z,75.90
2022-12-03T15:28:48.490Z,76.53
2022-12-03T15:32:11.883Z,75.78
2022-12-03T15:35:33.923Z,76.08
2022-12-03T15:38:56.482Z,76.09
2022-12-03T15:42:18.181Z,76.31
2022-12-03T15:45:40.865Z,76.16
2022-12-03T15:49:04.199Z,75.68
2022-12-03T15:52:25.914Z,75.99
2022-12-03T15:55:47.866Z,77.00
2022-12-03T15:59:09.832Z,76.77
2022-12-03T16:02:34.007Z,76.28
2022-12-03T16:05:57.185Z,77.00
2022-12-03T16:09:23.741Z,76.98
2022-12-03T16:12:49.457Z,76.67
2022-12-03T16:16:11.073Z,76.91
2022-12-03T16:19:32.794Z,77.27
2022-12-03T16:23:12.158Z,77.65
2022-12-03T16:26:33.686Z,77.00
2022-12-03T16:29:56.752Z,76.58
2022-12-03T16:33:22.627Z,76.70
2022-12-03T16:36:47.248Z,76.86
2022-12-03T16:40:12.306Z,76.57
2022-12-03T16:43:38.444Z,76.84
2022-12-03T16:47:01.508Z,76.65
2022-12-03T16:50:29.357Z,76.82
2022-12-03T16:53:52.491Z,76.90
2022-12-03T16:57:16.355Z,76.64
2022-12-03T17:00:38.303Z,76.72
2022-12-03T17:04:00.151Z,76.39
2022-12-03T17:07:22.171Z,77.07
2022-12-03T17:10:44.161Z,76.29
2022-12-03T17:14:07.340Z,76.60
2022-12-03T17:17:29.152Z,76.24
2022-12-03T17:20:50.856Z,76.90
2022-12-03T17:24:12.746Z,76.64
2022-12-03T17:27:34.665Z,76.94
2022-12-03T17:30:58.037Z,76.10
2022-12-03T17:34:20.250Z,76.03
2022-12-03T17:37:42.214Z,76.80
2022-12-03T17:41:04.315Z,76.47
2022-12-03T17:44:26.018Z,76.53
2022-12-03T17:47:50.310Z,76.01
2022-12-03T17:51:12.133Z,76.35
2022-12-03T17:54:49.337Z,77.21
2022-12-03T17:58:15.346Z,76.80
2022-12-03T18:01:37.249Z,76.90
2022-12-03T18:05:00.615Z,77.50
2022-12-03T18:08:22.641Z,77.41
2022-12-03T18:11:44.554Z,77.07
2022-12-03T18:15:07.199Z,76.57
2022-12-03T18:18:28.899Z,75.58
2022-12-03T18:21:52.115Z,75.58
2022-12-03T18:25:14.594Z,75.54
2022-12-03T18:28:36.253Z,74.94
2022-12-03T18:31:58.245Z,75.07
2022-12-03T18:35:20.708Z,74.87
2022-12-03T18:38:43.667Z,75.12
2022-12-03T18:42:14.426Z,75.82
2022-12-03T18:45:36.401Z,75.33
2022-12-03T18:48:58.150Z,75.21
2022-12-03T18:52:22.549Z,75.58
2022-12-03T18:55:46.793Z,75.25
2022-12-03T18:59:09.151Z,75.45
2022-12-03T19:03:02.616Z,74.83
2022-12-03T19:06:18.759Z,74.94
2022-12-03T19:09:41.108Z,74.91
2022-12-03T19:13:04.764Z,75.53
2022-12-03T19:16:26.539Z,75.44
2022-12-03T19:19:48.189Z,74.96
2022-12-03T19:23:10.288Z,75.05
2022-12-03T19:26:32.141Z,75.08
2022-12-03T19:29:55.815Z,75.45
2022-12-03T19:33:18.300Z,74.95
2022-12-03T19:36:40.158Z,74.75
2022-12-03T19:40:01.700Z,75.54
2022-12-03T19:43:23.484Z,75.22
2022-12-03T19:46:46.934Z,75.78
2022-12-03T19:50:09.710Z,75.49
2022-12-03T19:53:32.331Z,75.90
2022-12-03T19:56:54.028Z,75.80
2022-12-03T20:00:17.043Z,75.49
2022-12-03T20:03:41.209Z,75.44
2022-12-03T20:07:02.993Z,75.03
2022-12-03T20:10:25.425Z,75.55
2022-12-03T20:13:48.411Z,75.69
2022-12-03T20:17:09.850Z,75.20
2022-12-03T20:20:33.078Z,75.31
2022-12-03T20:23:54.789Z,75.28
2022-12-03T20:27:22.476Z,75.28
2022-12-03T20:30:45.645Z,75.20
2022-12-03T20:34:07.404Z,75.76
2022-12-03T20:37:31.854Z,75.30
2022-12-03T20:40:53.579Z,75.16
2022-12-03T20:44:15.190Z,75.32
2022-12-03T20:47:37.154Z,75.15
2022-12-03T20:50:58.880Z,75.10
2022-12-03T20:54:22.069Z,74.89
2022-12-03T20:57:43.869Z,75.07
2022-12-03T21:01:15.435Z,74.80
2022-12-03T21:04:37.775Z,75.55
2022-12-03T21:07:59.868Z,75.77
2022-12-03T21:11:24.962Z,75.62
2022-12-03T21:14:47.067Z,75.91
2022-12-03T21:18:10.190Z,74.81
2022-12-03T21:21:31.584Z,75.03
2022-12-03T21:24:53.424Z,75.07
2022-12-03T21:28:16.628Z,75.19
2022-12-03T21:31:39.943Z,74.83
2022-12-03T21:35:01.783Z,74.57
2022-12-03T21:38:23.572Z,75.40
2022-12-03T21:42:19.147Z,74.98
2022-12-03T21:45:28.474Z,75.17
2022-12-03T21:48:50.286Z,74.58
2022-12-03T21:52:11.878Z,74.66
2022-12-03T21:55:33.567Z,74.99
2022-12-03T21:58:56.397Z,74.93
2022-12-03T22:02:19.650Z,74.87
2022-12-03T22:05:41.207Z,74.25
2022-12-03T22:09:03.131Z,74.57
2022-12-03T22:12:25.165Z,74.80
2022-12-03T22:15:46.891Z,74.50
2022-12-03T22:19:10.287Z,74.45
2022-12-03T22:22:32.581Z,75.18
2022-12-03T22:25:59.288Z,75.00
2022-12-03T22:29:20.921Z,74.85
2022-12-03T22:32:42.859Z,75.17
2022-12-03T22:36:09.716Z,74.85
2022-12-03T22:39:34.082Z,75.03
2022-12-03T22:42:55.852Z,74.87
2022-12-03T22:46:18.272Z,75.63
2022-12-03T22:49:40.136Z,75.08
2022-12-03T22:53:03.170Z,74.92
2022-12-03T22:56:25.750Z,75.28
2022-12-03T22:59:47.316Z,74.88
2022-12-03T23:03:09.693Z,74.53
2022-12-03T23:06:32.465Z,74.57
2022-12-03T23:09:56.145Z,75.27
2022-12-03T23:13:19.591Z,74.88
2022-12-03T23:16:42.191Z,75.31
2022-12-03T23:20:04.266Z,74.75
2022-12-03T23:23:28.162Z,74.66
2022-12-03T23:26:51.410Z,75.11
2022-12-03T23:30:15.570Z,75.50
2022-12-03T23:33:38.696Z,75.61
2022-12-03T23:37:00.478Z,75.56
2022-12-03T23:40:22.005Z,75.35
2022-12-03T23:43:45.274Z,75.26
2022-12-03T23:47:07.161Z,75.36
2022-12-03T23:50:29.790Z,74.52
2022-12-03T23:53:52.811Z,75.18
2022-12-03T23:57:15.944Z,74.75
